createdAt,value
2019-05-06T00:00:26.311Z,52.54
2019-05-06T00:02:55.543Z,52.39
2019-05-06T00:05:25.591Z,52.44
2019-05-06T00:07:55.059Z,53.65
2019-05-06T00:10:27.843Z,53.25
2019-05-06T00:12:57.155Z,53.19
2019-05-06T00:15:26.858Z,53.11
2019-05-06T00:17:56.078Z,52.84
2019-05-06T00:20:25.583Z,52.52
2019-05-06T00:22:57.975Z,53.80
2019-05-06T00:25:35.843Z,52.55
2019-05-06T00:28:24.589Z,53.18
2019-05-06T00:31:08.597Z,54.04
2019-05-06T00:33:26.463Z,53.85
2019-05-06T00:35:55.776Z,53.12
2019-05-06T00:38:25.287Z,52.65
2019-05-06T00:40:58.161Z,52.86
2019-05-06T00:43:27.646Z,52.42
2019-05-06T00:45:57.094Z,51.93
2019-05-06T00:48:26.599Z,51.24
2019-05-06T00:50:55.919Z,51.33
2019-05-06T00:53:26.819Z,51.04
2019-05-06T00:55:55.997Z,51.25
2019-05-06T00:58:25.232Z,50.70
2019-05-06T01:00:54.677Z,50.46
2019-05-06T01:03:24.104Z,50.07
2019-05-06T01:05:54.245Z,50.21
2019-05-06T01:08:24.285Z,50.16
2019-05-06T01:10:54.479Z,51.19
2019-05-06T01:13:30.484Z,51.17
2019-05-06T01:15:59.675Z,51.25
2019-05-06T01:18:28.912Z,52.00
2019-05-06T01:21:10.399Z,51.98
2019-05-06T01:23:44.229Z,52.33
2019-05-06T01:26:15.145Z,52.46
2019-05-06T01:28:45.983Z,53.19
2019-05-06T01:31:15.243Z,53.10
2019-05-06T01:33:45.294Z,53.13
2019-05-06T01:36:14.653Z,53.15
2019-05-06T01:39:06.148Z,53.65
2019-05-06T01:41:54.297Z,53.62
2019-05-06T01:44:24.433Z,52.59
2019-05-06T01:46:54.192Z,52.67
2019-05-06T01:49:24.539Z,52.32
2019-05-06T01:51:54.597Z,52.87
2019-05-06T01:54:24.929Z,53.01
2019-05-06T01:56:54.655Z,52.98
2019-05-06T01:59:24.640Z,53.54
2019-05-06T02:02:00.082Z,53.50
2019-05-06T02:27:16.205Z,54.37
2019-05-06T02:30:00.135Z,54.22
2019-05-06T02:32:39.139Z,54.28
2019-05-06T02:35:27.456Z,53.81
2019-05-06T02:37:56.630Z,54.30
2019-05-06T02:40:27.485Z,54.04
2019-05-06T02:42:56.713Z,54.09
2019-05-06T02:45:26.027Z,54.50
2019-05-06T02:48:23.204Z,54.13
2019-05-06T02:51:17.411Z,54.33
2019-05-06T02:53:46.912Z,54.50
2019-05-06T02:56:16.153Z,53.91
2019-05-06T02:58:45.327Z,54.00
2019-05-06T03:01:14.567Z,54.75
2019-05-06T03:03:44.020Z,54.62
2019-05-06T03:06:13.397Z,54.61
2019-05-06T03:08:43.450Z,55.39
2019-05-06T03:11:13.757Z,55.45
2019-05-06T03:13:44.183Z,55.45
2019-05-06T03:16:14.357Z,54.74
2019-05-06T03:18:44.041Z,55.37
2019-05-06T03:21:36.711Z,54.62
2019-05-06T03:24:23.715Z,54.61
2019-05-06T03:26:56.750Z,54.91
2019-05-06T03:29:25.327Z,55.14
2019-05-06T03:31:56.306Z,54.06
2019-05-06T03:34:48.994Z,54.04
2019-05-06T03:36:57.341Z,53.57
2019-05-06T03:39:26.600Z,53.41
2019-05-06T03:41:56.329Z,53.74
2019-05-06T03:44:25.865Z,53.43
2019-05-06T03:47:14.032Z,53.74
2019-05-06T03:49:49.781Z,53.26
2019-05-06T03:52:16.954Z,54.96
2019-05-06T03:54:47.281Z,54.04
2019-05-06T03:57:18.053Z,53.79
2019-05-06T03:59:49.037Z,54.03
2019-05-06T04:02:18.680Z,54.22
2019-05-06T04:04:47.957Z,54.41
2019-05-06T04:07:18.218Z,54.71
2019-05-06T04:09:47.700Z,54.43
2019-05-06T04:12:18.281Z,53.97
2019-05-06T04:14:47.554Z,55.18
2019-05-06T04:17:36.954Z,54.54
2019-05-06T04:20:34.741Z,56.47
2019-05-06T04:23:13.370Z,55.08
2019-05-06T04:25:54.005Z,55.48
2019-05-06T04:28:25.830Z,55.00
2019-05-06T04:30:55.364Z,54.83
2019-05-06T04:33:24.765Z,54.47
2019-05-06T04:35:54.389Z,54.78
2019-05-06T04:38:24.219Z,55.15
2019-05-06T04:40:54.366Z,54.43
2019-05-06T04:43:26.887Z,54.67
2019-05-06T04:45:54.545Z,54.79
2019-05-06T04:48:24.194Z,54.64
2019-05-06T04:50:54.205Z,55.09
2019-05-06T04:53:26.861Z,53.91
2019-05-06T04:55:54.994Z,53.86
2019-05-06T04:58:24.326Z,53.58
2019-05-06T05:00:53.973Z,54.23
2019-05-06T05:03:23.224Z,54.86
2019-05-06T05:05:53.331Z,55.10
2019-05-06T05:08:26.754Z,55.72
2019-05-06T05:11:04.177Z,55.60
2019-05-06T05:13:53.215Z,55.73
2019-05-06T05:16:59.272Z,56.21
2019-05-06T05:19:29.868Z,55.78
2019-05-06T05:22:06.038Z,54.90
2019-05-06T05:24:36.475Z,54.72
2019-05-06T05:27:06.269Z,54.23
2019-05-06T05:29:35.745Z,54.21
2019-05-06T05:32:05.445Z,54.73
2019-05-06T05:34:39.919Z,53.92
2019-05-06T05:37:06.117Z,53.65
2019-05-06T05:39:35.494Z,54.11
2019-05-06T05:42:14.145Z,54.04
2019-05-06T05:44:44.003Z,53.20
2019-05-06T05:47:13.326Z,52.69
2019-05-06T05:50:02.815Z,52.43
2019-05-06T05:52:32.906Z,52.64
2019-05-06T05:55:02.907Z,52.63
2019-05-06T05:57:33.018Z,51.55
2019-05-06T06:00:03.902Z,51.65
2019-05-06T06:02:33.861Z,51.39
2019-05-06T06:05:03.126Z,50.94
2019-05-06T06:07:32.865Z,51.26
2019-05-06T06:10:13.361Z,50.56
2019-05-06T06:12:42.950Z,50.40
2019-05-06T06:15:29.073Z,49.43
2019-05-06T06:18:29.718Z,49.33
2019-05-06T06:21:18.714Z,48.02
2019-05-06T06:23:42.658Z,47.45
2019-05-06T06:26:12.178Z,47.27
2019-05-06T06:28:42.635Z,48.26
2019-05-06T06:31:36.770Z,49.09
2019-05-06T06:34:24.962Z,48.30
2019-05-06T06:37:13.317Z,47.82
2019-05-06T06:39:44.104Z,48.91
2019-05-06T06:42:13.279Z,47.95
2019-05-06T06:44:42.511Z,47.76
2019-05-06T06:47:12.971Z,47.29
2019-05-06T06:49:42.686Z,46.76
2019-05-06T06:52:14.707Z,46.93
2019-05-06T06:54:43.847Z,45.62
2019-05-06T06:57:34.914Z,47.03
2019-05-06T07:00:12.683Z,47.45
2019-05-06T07:02:46.053Z,45.76
2019-05-06T07:05:42.403Z,44.92
2019-05-06T07:08:12.723Z,45.21
2019-05-06T07:10:45.094Z,45.04
2019-05-06T07:13:16.697Z,43.86
2019-05-06T07:15:46.564Z,43.51
2019-05-06T07:18:16.071Z,43.40
2019-05-06T07:21:05.941Z,42.66
2019-05-06T07:23:36.065Z,42.61
2019-05-06T07:26:05.448Z,42.44
2019-05-06T07:28:34.687Z,43.22
2019-05-06T07:31:17.436Z,42.18
2019-05-06T07:33:35.118Z,41.78
2019-05-06T07:36:04.575Z,40.68
2019-05-06T07:38:34.175Z,39.97
2019-05-06T07:41:14.747Z,40.04
2019-05-06T07:44:08.219Z,39.43
2019-05-06T07:46:44.299Z,38.56
2019-05-06T07:49:13.534Z,37.24
2019-05-06T07:51:42.692Z,36.13
2019-05-06T07:54:12.355Z,36.58
2019-05-06T07:56:42.866Z,37.31
2019-05-06T07:59:12.743Z,38.13
2019-05-06T08:01:43.837Z,38.15
2019-05-06T08:04:13.570Z,38.17
2019-05-06T08:06:43.031Z,38.43
2019-05-06T08:09:13.215Z,36.87
2019-05-06T08:11:42.724Z,35.46
2019-05-06T08:14:13.015Z,34.82
2019-05-06T08:16:48.439Z,33.25
2019-05-06T08:19:17.687Z,33.75
2019-05-06T08:21:49.295Z,33.70
2019-05-06T08:24:18.742Z,33.51
2019-05-06T08:26:47.976Z,33.16
2019-05-06T08:29:17.163Z,33.51
2019-05-06T08:31:46.759Z,33.81
2019-05-06T08:34:16.229Z,33.84
2019-05-06T08:37:09.320Z,34.21
2019-05-06T08:39:38.828Z,33.48
2019-05-06T08:42:08.350Z,31.69
2019-05-06T08:44:37.595Z,31.64
2019-05-06T08:47:06.775Z,33.59
2019-05-06T08:49:53.993Z,34.76
2019-05-06T08:52:27.118Z,34.68
2019-05-06T08:54:57.823Z,33.03
2019-05-06T08:57:27.043Z,32.59
2019-05-06T08:59:56.221Z,32.74
2019-05-06T09:02:25.738Z,32.81
2019-05-06T09:04:55.027Z,32.96
2019-05-06T09:07:24.268Z,32.71
2019-05-06T09:09:53.760Z,33.25
2019-05-06T09:12:23.001Z,33.89
2019-05-06T09:14:53.222Z,33.67
2019-05-06T09:17:22.723Z,34.30
2019-05-06T09:19:53.488Z,35.34
2019-05-06T09:22:23.540Z,35.25
2019-05-06T09:24:53.196Z,34.24
2019-05-06T09:27:42.260Z,34.65
2019-05-06T09:30:16.570Z,35.06
2019-05-06T09:32:45.805Z,33.52
2019-05-06T09:35:15.199Z,33.06
2019-05-06T09:37:45.257Z,32.31
2019-05-06T09:40:14.642Z,33.27
2019-05-06T09:42:43.907Z,33.43
2019-05-06T09:45:13.192Z,33.08
2019-05-06T09:48:03.630Z,33.33
2019-05-06T09:50:38.367Z,32.71
2019-05-06T09:53:09.251Z,32.53
2019-05-06T09:55:57.508Z,31.54
2019-05-06T09:58:27.036Z,31.60
2019-05-06T10:00:57.985Z,31.85
2019-05-06T10:03:27.219Z,31.93
2019-05-06T10:05:56.468Z,32.44
2019-05-06T10:08:25.714Z,31.41
2019-05-06T10:10:59.555Z,31.55
2019-05-06T10:13:26.412Z,32.22
2019-05-06T10:15:57.616Z,31.34
2019-05-06T10:18:26.651Z,31.73
2019-05-06T10:20:56.162Z,31.67
2019-05-06T10:23:25.346Z,32.11
2019-05-06T10:25:54.860Z,31.78
2019-05-06T10:28:41.200Z,32.56
2019-05-06T10:31:12.841Z,32.51
2019-05-06T10:33:59.439Z,31.84
2019-05-06T10:36:34.436Z,32.03
2019-05-06T10:39:08.920Z,33.24
2019-05-06T10:41:42.205Z,33.73
2019-05-06T10:44:22.565Z,34.63
2019-05-06T10:46:52.665Z,34.52
2019-05-06T10:49:22.661Z,33.84
2019-05-06T10:52:08.393Z,33.07
2019-05-06T10:54:37.572Z,33.58
2019-05-06T10:57:29.672Z,32.99
2019-05-06T10:59:59.169Z,31.89
2019-05-06T11:02:45.221Z,31.85
2019-05-06T11:05:14.565Z,31.18
2019-05-06T11:07:43.808Z,32.29
2019-05-06T11:10:24.339Z,32.40
2019-05-06T11:12:44.425Z,32.53
2019-05-06T11:15:14.035Z,32.70
2019-05-06T11:17:43.694Z,32.14
2019-05-06T11:20:14.181Z,32.21
2019-05-06T11:22:43.741Z,30.83
2019-05-06T11:25:13.137Z,31.33
2019-05-06T11:27:45.236Z,30.84
2019-05-06T11:30:27.955Z,30.46
2019-05-06T11:33:13.259Z,30.85
2019-05-06T11:35:58.159Z,31.08
2019-05-06T11:38:27.626Z,32.31
2019-05-06T11:40:57.146Z,32.05
2019-05-06T11:43:26.638Z,32.64
2019-05-06T11:45:56.139Z,32.72
2019-05-06T11:48:25.668Z,33.32
2019-05-06T11:50:58.634Z,32.64
2019-05-06T11:53:27.824Z,32.28
2019-05-06T11:55:57.127Z,31.68
2019-05-06T11:58:43.174Z,32.42
2019-05-06T12:01:18.203Z,32.55
2019-05-06T12:03:47.509Z,32.91
2019-05-06T12:06:16.740Z,32.66
2019-05-06T12:08:45.974Z,33.02
2019-05-06T12:11:15.155Z,33.44
2019-05-06T12:13:44.799Z,33.54
2019-05-06T12:16:14.399Z,33.27
2019-05-06T12:18:43.723Z,32.66
2019-05-06T12:21:18.909Z,32.23
2019-05-06T12:23:45.069Z,32.25
2019-05-06T12:26:14.368Z,32.07
2019-05-06T12:28:43.798Z,33.07
2019-05-06T12:31:13.055Z,32.63
2019-05-06T12:33:46.793Z,32.75
2019-05-06T12:36:20.872Z,33.09
2019-05-06T12:39:08.372Z,33.49
2019-05-06T12:41:46.334Z,33.61
2019-05-06T12:44:15.743Z,33.37
2019-05-06T12:47:03.888Z,33.74
2019-05-06T12:49:33.511Z,33.09
2019-05-06T12:52:02.699Z,32.78
2019-05-06T12:54:33.478Z,32.55
2019-05-06T12:57:03.488Z,32.92
2019-05-06T12:59:32.768Z,33.18
2019-05-06T13:02:02.813Z,34.32
2019-05-06T13:04:49.524Z,35.33
2019-05-06T13:07:03.334Z,35.66
2019-05-06T13:09:33.156Z,35.07
2019-05-06T13:12:03.738Z,34.21
2019-05-06T13:14:33.432Z,34.03
2019-05-06T13:17:02.961Z,33.06
2019-05-06T13:19:32.434Z,33.56
2019-05-06T13:22:03.625Z,33.73
2019-05-06T13:24:32.888Z,33.55
2019-05-06T13:27:02.769Z,33.35
2019-05-06T13:29:35.567Z,33.40
2019-05-06T13:32:06.548Z,33.90
2019-05-06T13:34:35.782Z,32.35
2019-05-06T13:37:05.069Z,32.83
2019-05-06T13:39:34.379Z,33.67
2019-05-06T13:42:03.598Z,33.55
2019-05-06T13:44:32.816Z,33.78
2019-05-06T13:47:03.050Z,32.02
2019-05-06T13:50:03.541Z,31.24
2019-05-06T13:52:38.367Z,30.65
2019-05-06T13:55:07.789Z,31.47
2019-05-06T13:57:39.255Z,30.15
2019-05-06T14:00:09.706Z,29.25
2019-05-06T14:02:53.679Z,30.75
2019-05-06T14:05:23.271Z,31.59
2019-05-06T14:07:52.960Z,31.74
2019-05-06T14:10:22.365Z,32.49
2019-05-06T14:12:53.162Z,33.01
2019-05-06T14:15:23.348Z,33.78
2019-05-06T14:17:53.396Z,33.90
2019-05-06T14:20:22.717Z,33.77
2019-05-06T14:22:52.608Z,32.04
2019-05-06T14:25:39.539Z,33.41
2019-05-06T14:28:26.481Z,33.07
2019-05-06T14:30:59.661Z,33.59
2019-05-06T14:33:29.124Z,34.21
2019-05-06T14:35:58.733Z,34.27
2019-05-06T14:38:28.091Z,34.87
2019-05-06T14:41:08.072Z,35.99
2019-05-06T14:43:36.828Z,35.96
2019-05-06T14:46:06.065Z,34.87
2019-05-06T14:48:35.298Z,34.51
2019-05-06T14:51:04.522Z,34.66
2019-05-06T14:53:34.034Z,33.89
2019-05-06T14:56:09.648Z,34.43
2019-05-06T14:58:39.225Z,35.83
2019-05-06T15:01:08.687Z,34.96
2019-05-06T15:03:38.205Z,35.18
2019-05-06T15:06:07.453Z,35.28
2019-05-06T15:08:36.951Z,34.41
2019-05-06T15:11:06.136Z,35.00
2019-05-06T15:13:35.381Z,34.97
2019-05-06T15:16:04.569Z,35.92
2019-05-06T15:18:33.821Z,36.76
2019-05-06T15:21:29.051Z,38.18
2019-05-06T15:23:33.914Z,39.23
2019-05-06T15:26:03.169Z,40.17
2019-05-06T15:28:33.801Z,40.27
2019-05-06T15:31:12.338Z,41.39
2019-05-06T15:33:43.507Z,40.94
2019-05-06T15:36:27.696Z,41.23
2019-05-06T15:38:56.924Z,41.42
2019-05-06T15:41:26.164Z,41.95
2019-05-06T15:43:55.352Z,41.96
2019-05-06T15:46:24.869Z,41.82
2019-05-06T15:48:54.692Z,40.96
2019-05-06T15:51:34.903Z,40.59
2019-05-06T15:54:08.463Z,40.34
2019-05-06T15:56:37.995Z,40.15
2019-05-06T15:59:07.490Z,40.48
2019-05-06T16:01:36.739Z,40.15
2019-05-06T16:04:06.549Z,39.82
2019-05-06T16:06:35.869Z,39.71
2019-05-06T16:09:06.356Z,39.13
2019-05-06T16:11:36.330Z,39.12
2019-05-06T16:14:05.840Z,39.37
2019-05-06T16:16:35.032Z,38.92
2019-05-06T16:19:04.517Z,39.04
2019-05-06T16:21:33.968Z,39.31
2019-05-06T16:24:14.079Z,38.65
2019-05-06T16:26:45.698Z,38.37
2019-05-06T16:29:14.644Z,38.01
2019-05-06T16:31:43.954Z,37.70
2019-05-06T16:34:14.640Z,37.79
2019-05-06T16:36:43.982Z,38.61
2019-05-06T16:39:13.648Z,38.78
2019-05-06T16:41:44.750Z,39.58
2019-05-06T16:44:14.208Z,38.43
2019-05-06T16:46:43.405Z,39.46
2019-05-06T16:49:14.199Z,38.98
2019-05-06T16:51:44.246Z,39.30
2019-05-06T16:54:13.487Z,38.97
2019-05-06T16:57:05.403Z,38.93
2019-05-06T16:59:34.600Z,38.23
2019-05-06T17:02:13.775Z,38.38
2019-05-06T17:04:48.440Z,38.34
2019-05-06T17:07:17.727Z,38.10
2019-05-06T17:09:47.384Z,38.46
2019-05-06T17:12:16.624Z,39.60
2019-05-06T17:14:45.810Z,40.87
2019-05-06T17:17:15.070Z,41.82
2019-05-06T17:19:44.264Z,42.47
2019-05-06T17:22:13.606Z,42.93
2019-05-06T17:24:43.094Z,44.74
2019-05-06T17:27:12.277Z,44.94
2019-05-06T17:30:00.478Z,45.41
2019-05-06T17:32:35.688Z,45.89
2019-05-06T17:35:07.529Z,45.56
2019-05-06T17:38:08.378Z,44.82
2019-05-06T17:40:37.566Z,45.38
2019-05-06T17:43:06.837Z,46.21
2019-05-06T17:45:58.285Z,46.69
2019-05-06T17:48:39.693Z,47.80
2019-05-06T17:51:14.093Z,48.21
2019-05-06T17:53:45.716Z,49.56
2019-05-06T17:56:14.899Z,48.52
2019-05-06T17:58:44.137Z,48.11
2019-05-06T18:01:14.522Z,47.37
2019-05-06T18:03:43.703Z,47.28
2019-05-06T18:06:14.187Z,46.75
2019-05-06T18:08:43.666Z,47.41
2019-05-06T18:11:13.138Z,47.11
2019-05-06T18:13:42.545Z,46.41
2019-05-06T18:16:13.218Z,46.59
2019-05-06T18:18:42.452Z,46.47
2019-05-06T18:21:12.458Z,46.57
2019-05-06T18:23:41.923Z,46.61
2019-05-06T18:26:11.190Z,46.68
2019-05-06T18:28:40.467Z,47.47
2019-05-06T18:31:10.008Z,47.27
2019-05-06T18:33:39.329Z,47.97
2019-05-06T18:36:08.577Z,49.11
2019-05-06T18:38:38.049Z,49.13
2019-05-06T18:41:07.915Z,49.03
2019-05-06T18:43:37.892Z,49.53
2019-05-06T18:46:07.130Z,49.47
2019-05-06T18:48:36.310Z,49.64
2019-05-06T18:51:05.831Z,49.96
2019-05-06T18:53:35.311Z,49.83
2019-05-06T18:56:05.175Z,49.59
2019-05-06T18:58:34.672Z,49.52
2019-05-06T19:01:04.317Z,49.65
2019-05-06T19:03:52.746Z,50.04
2019-05-06T19:06:23.220Z,50.22
2019-05-06T19:08:59.314Z,49.81
2019-05-06T19:11:28.581Z,50.99
2019-05-06T19:13:58.022Z,50.42
2019-05-06T19:16:27.504Z,50.09
2019-05-06T19:18:56.749Z,50.17
2019-05-06T19:21:25.928Z,50.41
2019-05-06T19:23:55.158Z,50.53
2019-05-06T19:26:24.347Z,50.48
2019-05-06T19:28:53.905Z,50.93
2019-05-06T19:31:23.228Z,50.65
2019-05-06T19:33:52.769Z,50.66
2019-05-06T19:36:23.475Z,50.51
2019-05-06T19:38:52.910Z,50.57
2019-05-06T19:41:22.711Z,51.09
2019-05-06T19:43:52.447Z,50.69
2019-05-06T19:46:21.664Z,51.09
2019-05-06T19:48:52.372Z,51.14
2019-05-06T19:51:22.550Z,51.35
2019-05-06T19:53:51.917Z,51.77
2019-05-06T19:56:23.168Z,51.99
2019-05-06T19:58:52.648Z,52.19
2019-05-06T20:01:22.906Z,52.77
2019-05-06T20:03:52.907Z,52.65
2019-05-06T20:06:39.380Z,52.46
2019-05-06T20:09:46.707Z,52.38
2019-05-06T20:12:58.492Z,52.43
2019-05-06T20:15:33.071Z,52.85
2019-05-06T20:18:03.041Z,52.81
2019-05-06T20:20:34.858Z,53.03
2019-05-06T20:23:03.455Z,53.53
2019-05-06T20:25:32.924Z,52.95
2019-05-06T20:28:02.464Z,52.64
2019-05-06T20:30:32.696Z,53.08
2019-05-06T20:33:02.270Z,53.63
2019-05-06T20:35:32.242Z,53.60
2019-05-06T20:38:02.749Z,53.39
2019-05-06T20:40:32.922Z,53.42
2019-05-06T20:43:14.237Z,53.72
2019-05-06T20:45:35.385Z,54.04
2019-05-06T20:48:04.097Z,54.00
2019-05-06T20:50:33.362Z,53.87
2019-05-06T20:53:02.593Z,53.88
2019-05-06T20:55:35.282Z,54.05
2019-05-06T20:58:02.867Z,54.21
2019-05-06T21:00:33.445Z,53.87
2019-05-06T21:03:02.837Z,53.81
2019-05-06T21:05:32.409Z,53.71
2019-05-06T21:08:02.354Z,53.98
2019-05-06T21:10:32.953Z,54.34
2019-05-06T21:13:02.553Z,54.96
2019-05-06T21:15:32.459Z,55.39
2019-05-06T21:18:04.207Z,55.44
2019-05-06T21:20:33.205Z,55.51
2019-05-06T21:23:02.559Z,55.70
2019-05-06T21:25:32.246Z,56.20
2019-05-06T21:28:02.872Z,56.04
2019-05-06T21:30:32.617Z,55.64
2019-05-06T21:33:01.780Z,55.33
2019-05-06T21:35:33.181Z,55.65
2019-05-06T21:38:02.627Z,55.92
2019-05-06T21:40:32.421Z,56.12
2019-05-06T21:43:02.240Z,56.64
2019-05-06T21:45:33.078Z,56.89
2019-05-06T21:48:03.161Z,57.11
2019-05-06T21:50:33.191Z,56.77
2019-05-06T21:53:02.849Z,56.51
2019-05-06T21:55:32.561Z,56.40
2019-05-06T21:58:02.328Z,56.53
2019-05-06T22:00:43.382Z,56.91
2019-05-06T22:03:13.418Z,56.67
2019-05-06T22:05:43.035Z,56.50
2019-05-06T22:08:13.002Z,56.43
2019-05-06T22:10:42.388Z,56.81
2019-05-06T22:13:14.307Z,56.78
2019-05-06T22:15:42.543Z,56.63
2019-05-06T22:18:12.484Z,56.76
2019-05-06T22:20:59.200Z,56.50
2019-05-06T22:23:47.804Z,56.72
2019-05-06T22:26:17.299Z,57.19
2019-05-06T22:28:46.541Z,57.48
2019-05-06T22:31:16.042Z,57.49
2019-05-06T22:33:45.252Z,56.98
2019-05-06T22:36:14.433Z,57.10
2019-05-06T22:38:44.296Z,57.38
2019-05-06T22:41:13.555Z,57.44
2019-05-06T22:43:42.783Z,57.25
2019-05-06T22:46:12.402Z,57.17
2019-05-06T22:48:43.361Z,57.64
2019-05-06T22:51:12.662Z,57.45
2019-05-06T22:53:42.612Z,57.71
2019-05-06T22:56:14.330Z,57.52
2019-05-06T22:58:43.570Z,57.52
2019-05-06T23:01:32.344Z,57.99
2019-05-06T23:04:02.113Z,58.28
2019-05-06T23:06:32.932Z,58.07
2019-05-06T23:09:02.636Z,57.96
2019-05-06T23:11:32.767Z,58.09
2019-05-06T23:14:02.843Z,58.18
2019-05-06T23:16:32.860Z,57.88
2019-05-06T23:19:03.016Z,57.61
2019-05-06T23:21:33.760Z,57.68
2019-05-06T23:24:03.394Z,57.24
2019-05-06T23:26:32.624Z,57.37
2019-05-06T23:29:02.551Z,57.31
2019-05-06T23:31:33.286Z,57.59
2019-05-06T23:34:04.986Z,57.63
2019-05-06T23:37:26.297Z,57.49
2019-05-06T23:40:42.558Z,57.37
2019-05-06T23:43:47.021Z,57.08
2019-05-06T23:46:52.833Z,57.14
2019-05-06T23:49:57.442Z,57.11
2019-05-06T23:53:02.929Z,57.19
2019-05-06T23:56:08.042Z,57.42
2019-05-06T23:58:37.218Z,57.85
